Time;durP1;ratioP1;P1;durP2;ratioP2;P2;SDS_P1;SDS_P2;PMS_P1;PMS_P2;Temp;Humidity;BMP_temperature;BMP_pressure;BME280_temperature;BME280_humidity;BME280_pressure;Samples;Min_cycle;Max_cycle;Signal;HPM_P1;HPM_P2
2023/04/30 00:02:16;;;;;;;;;;;19.50;54.30;;;;;;6268676;28;19916;-70
2023/04/30 00:05:17;;;;;;;;;;;19.50;54.50;;;;;;6268561;28;19915;-70
2023/04/30 00:08:18;;;;;;;;;;;19.50;54.40;;;;;;6256437;28;19916;-70
2023/04/30 00:11:18;;;;;;;;;;;19.50;54.40;;;;;;6243879;28;19916;-70
2023/04/30 00:14:19;;;;;;;;;;;19.50;54.50;;;;;;6265752;28;19939;-69
2023/04/30 00:17:20;;;;;;;;;;;19.50;54.50;;;;;;6268720;28;19917;-70
2023/04/30 00:20:21;;;;;;;;;;;19.50;54.50;;;;;;6268892;28;19919;-71
2023/04/30 00:23:21;;;;;;;;;;;19.50;54.60;;;;;;6267554;28;20393;-70
2023/04/30 00:26:22;;;;;;;;;;;19.50;54.60;;;;;;6269195;28;19916;-70
2023/04/30 00:29:23;;;;;;;;;;;19.50;54.60;;;;;;6269678;28;19909;-70
2023/04/30 00:32:23;;;;;;;;;;;19.50;54.60;;;;;;6269176;28;19913;-70
2023/04/30 00:35:24;;;;;;;;;;;19.50;54.60;;;;;;6270053;28;20003;-70
2023/04/30 00:38:25;;;;;;;;;;;19.50;54.70;;;;;;6269372;28;19966;-70
2023/04/30 00:41:26;;;;;;;;;;;19.50;54.70;;;;;;6268366;28;19909;-70
2023/04/30 00:44:26;;;;;;;;;;;19.50;54.70;;;;;;6269255;28;20001;-70
2023/04/30 00:47:27;;;;;;;;;;;19.50;54.70;;;;;;6269290;28;19909;-70
2023/04/30 00:50:28;;;;;;;;;;;19.50;54.70;;;;;;6267524;28;19920;-70
2023/04/30 00:53:29;;;;;;;;;;;19.50;54.80;;;;;;6269243;28;19919;-70
2023/04/30 00:56:30;;;;;;;;;;;19.50;54.80;;;;;;6267802;28;20428;-70
2023/04/30 00:59:31;;;;;;;;;;;19.40;54.70;;;;;;6268157;28;20281;-70
2023/04/30 01:02:32;;;;;;;;;;;19.40;54.70;;;;;;6269003;28;19998;-70
2023/04/30 01:05:32;;;;;;;;;;;19.50;54.80;;;;;;6268066;28;19913;-69
2023/04/30 01:08:33;;;;;;;;;;;19.40;54.80;;;;;;6267915;28;19916;-70
2023/04/30 01:11:40;;;;;;;;;;;19.40;55.40;;;;;;6284602;28;19908;-70
2023/04/30 01:14:40;;;;;;;;;;;19.40;54.80;;;;;;6268096;28;19921;-70
2023/04/30 01:17:54;;;;;;;;;;;19.40;54.80;;;;;;6269317;28;19931;-70
2023/04/30 01:21:04;;;;;;;;;;;19.40;54.80;;;;;;6268000;28;19915;-70
2023/04/30 01:24:15;;;;;;;;;;;19.40;54.90;;;;;;6267449;28;19908;-70
2023/04/30 01:27:38;;;;;;;;;;;19.40;54.90;;;;;;6267369;28;19909;-70
2023/04/30 01:30:40;;;;;;;;;;;19.40;54.90;;;;;;6283628;28;19909;-70
2023/04/30 01:33:41;;;;;;;;;;;19.40;54.90;;;;;;6269118;28;20015;-70
2023/04/30 01:37:02;;;;;;;;;;;19.40;54.90;;;;;;6273481;28;19909;-69
2023/04/30 01:40:06;;;;;;;;;;;19.40;55.00;;;;;;6273172;28;19963;-70
2023/04/30 01:43:16;;;;;;;;;;;19.40;55.00;;;;;;6273017;28;19916;-70
2023/04/30 01:46:17;;;;;;;;;;;19.40;55.00;;;;;;6273024;28;20358;-70
2023/04/30 01:49:23;;;;;;;;;;;19.40;55.00;;;;;;6271530;28;19974;-70
2023/04/30 01:52:27;;;;;;;;;;;19.40;55.00;;;;;;6272981;28;19962;-70
2023/04/30 01:55:32;;;;;;;;;;;19.40;55.00;;;;;;6272776;28;19920;-69
2023/04/30 01:58:34;;;;;;;;;;;19.40;55.00;;;;;;6273166;28;19959;-70
2023/04/30 02:01:35;;;;;;;;;;;19.40;55.00;;;;;;6272738;28;19908;-70
2023/04/30 02:04:36;;;;;;;;;;;19.40;55.00;;;;;;6272850;28;19916;-70
2023/04/30 02:07:37;;;;;;;;;;;19.40;55.00;;;;;;6272604;28;20266;-70
2023/04/30 02:10:38;;;;;;;;;;;19.40;55.10;;;;;;6272722;28;19948;-70
2023/04/30 02:13:40;;;;;;;;;;;19.40;55.10;;;;;;6272622;28;19913;-70
2023/04/30 02:16:41;;;;;;;;;;;19.40;55.10;;;;;;6271083;28;19967;-70
2023/04/30 02:19:42;;;;;;;;;;;19.40;55.10;;;;;;6271211;28;20435;-69
2023/04/30 02:22:43;;;;;;;;;;;19.40;55.10;;;;;;6272205;28;19913;-70
2023/04/30 02:25:44;;;;;;;;;;;19.40;55.10;;;;;;6287448;28;19947;-70
2023/04/30 02:28:46;;;;;;;;;;;19.40;55.20;;;;;;6272188;28;20313;-70
2023/04/30 02:31:46;;;;;;;;;;;19.40;55.10;;;;;;6270767;28;19935;-70
2023/04/30 02:34:47;;;;;;;;;;;19.40;55.10;;;;;;6271717;28;19913;-70
2023/04/30 02:37:48;;;;;;;;;;;19.40;55.20;;;;;;6272187;28;19934;-69
2023/04/30 02:40:48;;;;;;;;;;;19.40;55.10;;;;;;6272105;28;19917;-70
2023/04/30 02:43:50;;;;;;;;;;;19.40;55.10;;;;;;6272038;28;19916;-70
2023/04/30 02:46:51;;;;;;;;;;;19.30;55.10;;;;;;6270591;28;19913;-70
2023/04/30 02:49:51;;;;;;;;;;;19.40;55.20;;;;;;6271402;28;19921;-70
2023/04/30 02:52:52;;;;;;;;;;;19.30;55.10;;;;;;6270794;28;20622;-70
2023/04/30 02:55:53;;;;;;;;;;;19.40;55.20;;;;;;6271124;28;19938;-70
2023/04/30 02:58:53;;;;;;;;;;;19.30;55.10;;;;;;6270488;28;19909;-69
2023/04/30 03:01:54;;;;;;;;;;;19.40;55.20;;;;;;6270429;28;19908;-70
2023/04/30 03:04:55;;;;;;;;;;;19.30;55.10;;;;;;6271390;28;19908;-69
2023/04/30 03:07:55;;;;;;;;;;;19.30;55.10;;;;;;6271055;28;19916;-70
2023/04/30 03:10:56;;;;;;;;;;;19.30;55.10;;;;;;6269891;28;19915;-69
2023/04/30 03:13:57;;;;;;;;;;;19.30;55.10;;;;;;6271012;28;19913;-70
2023/04/30 03:16:57;;;;;;;;;;;19.30;55.20;;;;;;6286264;28;19913;-70
2023/04/30 03:19:58;;;;;;;;;;;19.30;55.10;;;;;;6269952;28;19915;-69
2023/04/30 03:22:59;;;;;;;;;;;19.30;55.20;;;;;;6270831;28;19951;-70
2023/04/30 03:25:59;;;;;;;;;;;19.30;55.10;;;;;;6269438;28;19909;-70
2023/04/30 03:29:00;;;;;;;;;;;19.30;55.20;;;;;;6270566;28;19912;-70
2023/04/30 03:32:02;;;;;;;;;;;19.30;55.20;;;;;;6270827;28;19909;-70
2023/04/30 03:35:03;;;;;;;;;;;19.30;55.10;;;;;;6270589;28;20259;-70
2023/04/30 03:38:03;;;;;;;;;;;19.30;55.10;;;;;;6270546;28;20019;-69
2023/04/30 03:41:04;;;;;;;;;;;19.30;55.20;;;;;;6270342;28;20007;-70
2023/04/30 03:44:05;;;;;;;;;;;19.30;55.20;;;;;;6270934;28;19959;-70
2023/04/30 03:47:05;;;;;;;;;;;19.30;55.10;;;;;;6268931;28;20362;-70
2023/04/30 03:50:06;;;;;;;;;;;19.30;55.20;;;;;;6270046;28;19920;-70
2023/04/30 03:53:07;;;;;;;;;;;19.30;55.20;;;;;;6269547;28;20030;-70
2023/04/30 03:56:08;;;;;;;;;;;19.30;55.20;;;;;;6269964;28;19908;-70
2023/04/30 04:02:46;;;;;;;;;;;19.30;55.20;;;;;;6270213;28;20373;-70
2023/04/30 04:05:48;;;;;;;;;;;19.30;55.20;;;;;;6269032;28;19917;-70
2023/04/30 04:08:49;;;;;;;;;;;19.30;55.20;;;;;;6252625;28;20419;-70
2023/04/30 04:11:50;;;;;;;;;;;19.30;55.10;;;;;;6243903;28;19917;-70
2023/04/30 04:14:50;;;;;;;;;;;19.30;55.10;;;;;;6245119;28;19967;-70
2023/04/30 04:17:51;;;;;;;;;;;19.30;55.20;;;;;;6244975;28;20410;-69
2023/04/30 04:20:51;;;;;;;;;;;19.30;55.10;;;;;;6245212;28;19913;-70
2023/04/30 04:23:52;;;;;;;;;;;19.30;55.10;;;;;;6245223;28;19970;-70
2023/04/30 04:26:53;;;;;;;;;;;19.30;55.00;;;;;;6263844;28;19935;-70
2023/04/30 04:29:53;;;;;;;;;;;19.30;55.10;;;;;;6269430;28;19912;-70
2023/04/30 04:32:54;;;;;;;;;;;19.30;55.10;;;;;;6269156;28;19912;-70
2023/04/30 04:35:56;;;;;;;;;;;19.30;55.10;;;;;;6269115;28;19909;-70
2023/04/30 04:39:00;;;;;;;;;;;19.30;55.00;;;;;;6268318;28;20007;-69
2023/04/30 04:42:01;;;;;;;;;;;19.30;55.10;;;;;;6268020;28;19920;-70
2023/04/30 04:45:02;;;;;;;;;;;19.30;55.00;;;;;;6269889;28;20353;-70
2023/04/30 04:48:03;;;;;;;;;;;19.30;55.10;;;;;;6268981;28;19999;-70
2023/04/30 04:51:03;;;;;;;;;;;19.30;55.10;;;;;;6269172;28;19913;-70
2023/04/30 04:54:05;;;;;;;;;;;19.30;55.10;;;;;;6267828;28;20007;-70
2023/04/30 04:57:05;;;;;;;;;;;19.30;55.10;;;;;;6269447;28;19909;-70
2023/04/30 05:00:08;;;;;;;;;;;19.30;55.10;;;;;;6269086;28;19958;-70
2023/04/30 05:03:09;;;;;;;;;;;19.30;55.20;;;;;;6269006;28;19916;-70
2023/04/30 05:06:10;;;;;;;;;;;19.30;55.10;;;;;;6267915;28;19912;-70
2023/04/30 05:09:11;;;;;;;;;;;19.30;55.00;;;;;;6270660;28;19913;-70
2023/04/30 05:12:12;;;;;;;;;;;19.30;55.10;;;;;;6273838;28;19966;-69
2023/04/30 05:15:13;;;;;;;;;;;19.30;55.00;;;;;;6272767;28;19909;-70
2023/04/30 05:18:14;;;;;;;;;;;19.30;55.10;;;;;;6273917;28;20536;-70
2023/04/30 05:21:14;;;;;;;;;;;19.30;55.00;;;;;;6273900;28;19916;-70
2023/04/30 05:24:15;;;;;;;;;;;19.30;55.10;;;;;;6273814;28;20440;-69
2023/04/30 05:27:16;;;;;;;;;;;19.30;55.10;;;;;;6272424;28;19913;-70
2023/04/30 05:30:18;;;;;;;;;;;19.30;55.00;;;;;;6273308;28;19916;-70
2023/04/30 05:33:18;;;;;;;;;;;19.30;55.10;;;;;;6273469;28;19913;-69
2023/04/30 05:36:19;;;;;;;;;;;19.30;55.00;;;;;;6272973;28;19920;-70
2023/04/30 05:39:19;;;;;;;;;;;19.30;55.10;;;;;;6273238;28;19908;-71
2023/04/30 05:42:20;;;;;;;;;;;19.30;55.10;;;;;;6273067;28;19913;-69
2023/04/30 05:45:21;;;;;;;;;;;19.30;55.10;;;;;;6273640;28;19909;-70
2023/04/30 05:48:21;;;;;;;;;;;19.30;55.10;;;;;;6272972;28;19924;-70
2023/04/30 05:51:22;;;;;;;;;;;19.30;55.10;;;;;;6272930;28;19955;-69
2023/04/30 05:54:23;;;;;;;;;;;19.30;55.10;;;;;;6272777;28;19913;-70
2023/04/30 05:57:23;;;;;;;;;;;19.30;55.10;;;;;;6272792;28;19909;-70
2023/04/30 06:00:24;;;;;;;;;;;19.30;55.10;;;;;;6271736;28;19913;-70
2023/04/30 06:03:25;;;;;;;;;;;19.30;55.00;;;;;;6272672;28;19919;-70
2023/04/30 06:06:26;;;;;;;;;;;19.30;55.10;;;;;;6272647;28;19916;-70
2023/04/30 06:09:27;;;;;;;;;;;19.30;55.10;;;;;;6272472;28;20329;-70
2023/04/30 06:12:28;;;;;;;;;;;19.30;55.10;;;;;;6271146;28;19912;-69
2023/04/30 06:15:28;;;;;;;;;;;19.30;55.10;;;;;;6272357;28;19991;-70
2023/04/30 06:18:29;;;;;;;;;;;19.30;55.10;;;;;;6271779;28;20305;-70
2023/04/30 06:21:30;;;;;;;;;;;19.30;55.00;;;;;;6272164;28;19912;-69
2023/04/30 06:24:31;;;;;;;;;;;19.30;55.00;;;;;;6272324;28;19934;-70
2023/04/30 06:27:31;;;;;;;;;;;19.30;55.00;;;;;;6270718;28;19909;-70
2023/04/30 06:30:33;;;;;;;;;;;19.30;55.10;;;;;;6271105;28;19908;-69
2023/04/30 06:33:33;;;;;;;;;;;19.30;55.10;;;;;;6270749;28;20003;-70
2023/04/30 06:36:34;;;;;;;;;;;19.30;55.00;;;;;;6272004;28;20415;-69
2023/04/30 06:39:35;;;;;;;;;;;19.30;55.10;;;;;;6272192;28;19909;-69
2023/04/30 06:42:35;;;;;;;;;;;19.30;55.10;;;;;;6271924;28;19909;-69
2023/04/30 06:45:36;;;;;;;;;;;19.30;55.10;;;;;;6271620;28;19916;-70
2023/04/30 06:48:36;;;;;;;;;;;19.30;55.00;;;;;;6271674;28;19921;-69
2023/04/30 06:51:37;;;;;;;;;;;19.30;55.00;;;;;;6270368;28;19982;-70
2023/04/30 06:54:38;;;;;;;;;;;19.30;55.10;;;;;;6271831;28;19924;-70
2023/04/30 06:57:38;;;;;;;;;;;19.30;55.10;;;;;;6271373;28;19920;-70
2023/04/30 07:00:39;;;;;;;;;;;19.30;55.10;;;;;;6271821;28;19909;-70
2023/04/30 07:03:40;;;;;;;;;;;19.30;55.10;;;;;;6271041;28;19912;-70
2023/04/30 07:06:41;;;;;;;;;;;19.30;55.00;;;;;;6271419;28;20308;-70
2023/04/30 07:09:41;;;;;;;;;;;19.30;55.10;;;;;;6246797;28;20393;-69
2023/04/30 07:12:42;;;;;;;;;;;19.30;55.10;;;;;;6255093;28;19948;-70
2023/04/30 07:15:43;;;;;;;;;;;19.30;55.00;;;;;;6270878;28;19920;-70
2023/04/30 07:18:43;;;;;;;;;;;19.30;55.10;;;;;;6269226;28;19943;-70
2023/04/30 07:21:44;;;;;;;;;;;19.30;55.10;;;;;;6270542;28;19948;-70
2023/04/30 07:24:45;;;;;;;;;;;19.30;55.00;;;;;;6270931;28;20396;-70
2023/04/30 07:27:46;;;;;;;;;;;19.30;55.00;;;;;;6269640;28;19909;-70
2023/04/30 07:30:46;;;;;;;;;;;19.30;55.00;;;;;;6269337;28;20389;-69
2023/04/30 07:33:49;;;;;;;;;;;19.30;55.00;;;;;;6268366;28;19963;-70
2023/04/30 07:36:50;;;;;;;;;;;19.30;55.10;;;;;;6270093;28;19916;-70
2023/04/30 07:39:50;;;;;;;;;;;19.30;55.10;;;;;;6269337;28;19999;-70
2023/04/30 07:42:51;;;;;;;;;;;19.30;55.10;;;;;;6269458;28;20006;-70
2023/04/30 07:45:53;;;;;;;;;;;19.30;54.90;;;;;;6268830;28;19962;-70
2023/04/30 07:48:54;;;;;;;;;;;19.30;55.10;;;;;;6270157;28;19971;-69
2023/04/30 07:51:55;;;;;;;;;;;19.30;55.00;;;;;;6270362;28;19909;-70
2023/04/30 07:54:56;;;;;;;;;;;19.30;55.00;;;;;;6270223;28;19912;-70
2023/04/30 07:57:57;;;;;;;;;;;19.30;55.00;;;;;;6268623;28;19923;-70
2023/04/30 08:00:58;;;;;;;;;;;19.30;55.10;;;;;;6270364;28;19994;-70
2023/04/30 08:03:58;;;;;;;;;;;19.30;55.00;;;;;;6270252;28;19909;-70
2023/04/30 08:07:00;;;;;;;;;;;19.30;55.10;;;;;;6260428;28;19975;-70
2023/04/30 08:10:01;;;;;;;;;;;19.30;55.10;;;;;;6245079;28;20420;-69
2023/04/30 08:13:03;;;;;;;;;;;19.30;55.00;;;;;;6245171;28;19913;-70
2023/04/30 08:16:03;;;;;;;;;;;19.30;55.10;;;;;;6244957;28;20430;-70
2023/04/30 08:19:04;;;;;;;;;;;19.30;55.00;;;;;;6245051;28;19910;-70
2023/04/30 08:22:05;;;;;;;;;;;19.30;55.70;;;;;;6246624;28;20336;-70
2023/04/30 08:25:05;;;;;;;;;;;19.30;55.00;;;;;;6269389;28;19939;-70
2023/04/30 08:28:06;;;;;;;;;;;19.20;54.90;;;;;;6269638;28;19963;-69
2023/04/30 08:31:07;;;;;;;;;;;19.30;55.00;;;;;;6269714;28;19917;-70
2023/04/30 08:34:08;;;;;;;;;;;19.30;54.90;;;;;;6268301;28;20022;-69
2023/04/30 08:37:08;;;;;;;;;;;19.30;55.00;;;;;;6269453;28;20318;-70
2023/04/30 08:40:10;;;;;;;;;;;19.20;54.90;;;;;;6269253;28;20011;-70
2023/04/30 08:43:12;;;;;;;;;;;19.30;55.00;;;;;;6269294;28;19940;-70
2023/04/30 08:46:14;;;;;;;;;;;19.30;55.00;;;;;;6274708;28;19909;-70
2023/04/30 08:49:14;;;;;;;;;;;19.20;55.00;;;;;;6273095;28;19924;-70
2023/04/30 08:52:15;;;;;;;;;;;19.20;54.90;;;;;;6274782;28;20048;-70
2023/04/30 08:55:16;;;;;;;;;;;19.20;54.90;;;;;;6274354;28;20292;-70
2023/04/30 08:58:17;;;;;;;;;;;19.30;55.00;;;;;;6274283;28;19913;-70
2023/04/30 09:01:18;;;;;;;;;;;19.30;54.90;;;;;;6274423;28;20409;-70
2023/04/30 09:04:19;;;;;;;;;;;19.30;55.00;;;;;;6274402;28;19909;-70
2023/04/30 09:07:22;;;;;;;;;;;19.20;55.00;;;;;;6274083;28;19944;-70
2023/04/30 09:10:23;;;;;;;;;;;19.30;55.00;;;;;;6274247;28;19909;-70
2023/04/30 09:13:23;;;;;;;;;;;19.20;55.00;;;;;;6274137;28;19913;-70
2023/04/30 09:16:25;;;;;;;;;;;19.20;54.90;;;;;;6274021;28;20385;-70
2023/04/30 09:19:27;;;;;;;;;;;19.20;54.90;;;;;;6272473;28;19909;-70
2023/04/30 09:22:27;;;;;;;;;;;19.30;54.90;;;;;;6272527;28;19931;-70
2023/04/30 09:25:37;;;;;;;;;;;19.30;55.00;;;;;;6273498;28;20413;-70
2023/04/30 09:28:52;;;;;;;;;;;19.20;54.90;;;;;;6272556;28;19908;-70
2023/04/30 09:32:06;;;;;;;;;;;19.30;55.60;;;;;;6272322;28;19963;-70
2023/04/30 09:35:27;;;;;;;;;;;19.20;54.90;;;;;;6272304;28;19962;-70
2023/04/30 09:38:28;;;;;;;;;;;19.20;55.00;;;;;;6263820;28;19963;-70
2023/04/30 09:41:29;;;;;;;;;;;19.20;55.00;;;;;;6248847;28;20379;-70
2023/04/30 09:44:35;;;;;;;;;;;19.20;55.00;;;;;;6247497;28;19913;-70
2023/04/30 09:47:38;;;;;;;;;;;19.20;54.90;;;;;;6248591;28;19909;-70
2023/04/30 09:50:39;;;;;;;;;;;19.20;55.00;;;;;;6248118;28;20487;-70
2023/04/30 09:53:41;;;;;;;;;;;19.20;55.00;;;;;;6247266;28;20321;-70
2023/04/30 09:56:42;;;;;;;;;;;19.20;55.00;;;;;;6247857;28;19916;-70
2023/04/30 09:59:44;;;;;;;;;;;19.20;54.90;;;;;;6246622;28;19909;-70
2023/04/30 10:02:44;;;;;;;;;;;19.20;55.00;;;;;;6251474;28;19909;-70
2023/04/30 10:05:46;;;;;;;;;;;19.20;55.00;;;;;;6273026;28;19955;-70
2023/04/30 10:08:49;;;;;;;;;;;19.20;55.00;;;;;;6272814;28;19909;-70
2023/04/30 10:11:50;;;;;;;;;;;19.30;55.10;;;;;;6264365;28;19916;-71
2023/04/30 10:14:53;;;;;;;;;;;19.20;54.90;;;;;;6247479;28;19963;-71
2023/04/30 10:17:56;;;;;;;;;;;19.20;54.90;;;;;;6257331;28;19920;-71
2023/04/30 10:20:58;;;;;;;;;;;19.30;55.10;;;;;;6244799;28;19916;-70
2023/04/30 10:23:58;;;;;;;;;;;19.20;55.10;;;;;;6259379;28;19988;-70
2023/04/30 10:26:59;;;;;;;;;;;19.20;55.10;;;;;;6261495;28;19909;-72
2023/04/30 10:30:00;;;;;;;;;;;19.20;54.90;;;;;;6262096;28;19913;-71
2023/04/30 10:33:10;;;;;;;;;;;19.20;55.10;;;;;;6269728;28;19916;-71
2023/04/30 10:36:13;;;;;;;;;;;19.20;55.00;;;;;;6246220;28;19920;-71
2023/04/30 10:39:17;;;;;;;;;;;19.20;55.10;;;;;;6252903;28;20377;-71
2023/04/30 10:42:18;;;;;;;;;;;19.20;55.20;;;;;;6271008;28;19939;-72
2023/04/30 10:45:33;;;;;;;;;;;19.20;55.20;;;;;;6252909;28;20325;-71
2023/04/30 10:48:34;;;;;;;;;;;19.20;55.20;;;;;;6246158;28;19921;-71
2023/04/30 10:51:48;;;;;;;;;;;19.20;55.20;;;;;;6256735;28;19916;-71
2023/04/30 10:54:50;;;;;;;;;;;19.20;55.30;;;;;;6255703;28;19917;-71
2023/04/30 10:57:54;;;;;;;;;;;19.20;54.70;;;;;;6268781;28;19999;-71
2023/04/30 11:01:16;;;;;;;;;;;19.20;54.90;;;;;;6269906;28;20388;-71
2023/04/30 11:04:17;;;;;;;;;;;19.20;55.10;;;;;;6268849;28;19909;-71
2023/04/30 11:07:17;;;;;;;;;;;19.20;55.00;;;;;;6259840;28;20374;-71
2023/04/30 11:10:23;;;;;;;;;;;19.20;55.10;;;;;;6256351;28;19915;-72
2023/04/30 11:13:25;;;;;;;;;;;19.20;55.20;;;;;;6268461;28;19916;-71
2023/04/30 11:16:28;;;;;;;;;;;19.20;55.20;;;;;;6267886;28;19917;-71
2023/04/30 11:19:33;;;;;;;;;;;19.10;54.70;;;;;;6248023;28;20019;-71
2023/04/30 11:22:36;;;;;;;;;;;19.10;54.10;;;;;;6268760;28;19917;-71
2023/04/30 11:25:44;;;;;;;;;;;19.10;53.10;;;;;;6268168;28;19908;-72
2023/04/30 11:28:49;;;;;;;;;;;19.10;51.70;;;;;;6267433;28;19909;-71
2023/04/30 11:31:50;;;;;;;;;;;19.10;52.60;;;;;;6267556;28;19909;-71
2023/04/30 11:34:51;;;;;;;;;;;19.10;51.60;;;;;;6268965;28;19974;-72
2023/04/30 11:37:53;;;;;;;;;;;19.10;49.30;;;;;;6267749;28;19920;-71
2023/04/30 11:40:55;;;;;;;;;;;19.10;49.90;;;;;;6267127;28;19909;-71
2023/04/30 11:43:55;;;;;;;;;;;19.10;51.40;;;;;;6267855;28;20406;-72
2023/04/30 11:46:56;;;;;;;;;;;19.10;49.90;;;;;;6268639;28;19908;-72
2023/04/30 11:49:57;;;;;;;;;;;19.10;49.40;;;;;;6263950;28;19921;-71
2023/04/30 11:53:00;;;;;;;;;;;19.10;48.70;;;;;;6243865;28;20388;-72
2023/04/30 11:56:03;;;;;;;;;;;19.10;48.00;;;;;;6260385;28;20310;-71
2023/04/30 11:59:13;;;;;;;;;;;19.10;49.00;;;;;;6267607;28;19913;-71
2023/04/30 12:02:15;;;;;;;;;;;19.10;50.00;;;;;;6259235;28;20012;-71
2023/04/30 12:05:16;;;;;;;;;;;19.10;48.70;;;;;;6251374;28;19909;-71
2023/04/30 12:08:17;;;;;;;;;;;19.10;50.50;;;;;;6255392;28;19917;-71
2023/04/30 12:11:19;;;;;;;;;;;19.00;48.80;;;;;;6265166;28;19909;-71
2023/04/30 12:14:23;;;;;;;;;;;19.00;48.50;;;;;;6255791;28;19912;-72
2023/04/30 12:17:35;;;;;;;;;;;19.00;47.10;;;;;;6256301;28;19920;-71
2023/04/30 12:20:37;;;;;;;;;;;19.00;48.00;;;;;;6259917;28;20112;-71
2023/04/30 12:23:37;;;;;;;;;;;19.00;47.40;;;;;;6243827;28;19909;-71
2023/04/30 12:26:39;;;;;;;;;;;19.00;48.50;;;;;;6244111;28;19920;-71
2023/04/30 12:29:43;;;;;;;;;;;19.00;46.40;;;;;;6243172;28;20404;-71
2023/04/30 12:32:45;;;;;;;;;;;19.00;45.10;;;;;;6253494;28;19948;-71
2023/04/30 12:35:46;;;;;;;;;;;19.00;48.50;;;;;;6246409;28;19909;-71
2023/04/30 12:38:47;;;;;;;;;;;19.00;48.50;;;;;;6268264;28;19912;-71
2023/04/30 12:41:48;;;;;;;;;;;19.00;47.60;;;;;;6267682;28;19909;-71
2023/04/30 12:44:49;;;;;;;;;;;19.00;47.10;;;;;;6266800;28;19916;-71
2023/04/30 12:47:52;;;;;;;;;;;19.00;45.80;;;;;;6266094;28;19909;-71
2023/04/30 12:51:00;;;;;;;;;;;19.00;45.50;;;;;;6267146;28;20554;-71
2023/04/30 12:54:01;;;;;;;;;;;19.00;47.60;;;;;;6267640;28;19974;-71
2023/04/30 12:57:04;;;;;;;;;;;19.00;47.00;;;;;;6267668;28;20346;-70
2023/04/30 13:00:05;;;;;;;;;;;19.00;47.70;;;;;;6257415;28;19943;-70
2023/04/30 13:03:05;;;;;;;;;;;19.00;46.80;;;;;;6261478;28;19924;-71
2023/04/30 13:06:06;;;;;;;;;;;19.00;47.30;;;;;;6265823;28;19909;-71
2023/04/30 13:09:07;;;;;;;;;;;19.00;45.10;;;;;;6257814;28;19913;-71
2023/04/30 13:12:08;;;;;;;;;;;19.00;44.60;;;;;;6256612;28;19916;-70
2023/04/30 13:15:08;;;;;;;;;;;19.00;44.10;;;;;;6266176;28;19909;-71
2023/04/30 13:18:09;;;;;;;;;;;19.00;44.20;;;;;;6266926;28;19909;-71
2023/04/30 13:21:10;;;;;;;;;;;19.00;45.50;;;;;;6266730;28;19909;-70
2023/04/30 13:24:10;;;;;;;;;;;19.00;48.30;;;;;;6267386;28;19913;-71
2023/04/30 13:27:11;;;;;;;;;;;19.00;47.80;;;;;;6265198;28;19909;-71
2023/04/30 13:30:13;;;;;;;;;;;19.00;47.80;;;;;;6266761;28;19909;-71
2023/04/30 13:33:14;;;;;;;;;;;18.90;47.90;;;;;;6256137;28;19919;-70
2023/04/30 13:36:15;;;;;;;;;;;19.00;47.70;;;;;;6262419;28;19909;-71
2023/04/30 13:39:16;;;;;;;;;;;18.90;47.20;;;;;;6266896;28;19909;-71
2023/04/30 13:42:16;;;;;;;;;;;18.90;47.50;;;;;;6271418;28;19988;-71
2023/04/30 13:45:17;;;;;;;;;;;18.90;46.10;;;;;;6271965;28;20370;-71
2023/04/30 13:48:18;;;;;;;;;;;18.90;46.90;;;;;;6270797;28;20373;-71
2023/04/30 13:51:18;;;;;;;;;;;18.90;44.30;;;;;;6270360;28;19913;-71
2023/04/30 13:54:19;;;;;;;;;;;18.90;45.10;;;;;;6269784;28;19913;-71
2023/04/30 13:57:20;;;;;;;;;;;18.90;47.20;;;;;;6269968;28;19948;-72
2023/04/30 14:00:21;;;;;;;;;;;18.90;47.70;;;;;;6270132;28;19956;-71
2023/04/30 14:03:21;;;;;;;;;;;18.90;48.40;;;;;;6259064;28;19916;-71
2023/04/30 14:06:22;;;;;;;;;;;18.90;45.80;;;;;;6267541;28;20292;-71
2023/04/30 14:09:23;;;;;;;;;;;18.90;46.30;;;;;;6266149;28;19944;-71
2023/04/30 14:12:23;;;;;;;;;;;18.90;45.40;;;;;;6269274;28;19916;-71
2023/04/30 14:15:24;;;;;;;;;;;18.90;46.10;;;;;;6271106;28;19956;-72
2023/04/30 14:18:25;;;;;;;;;;;18.90;46.80;;;;;;6260519;28;19916;-71
2023/04/30 14:21:27;;;;;;;;;;;18.90;46.80;;;;;;6269173;28;19909;-71
2023/04/30 14:24:28;;;;;;;;;;;18.90;46.70;;;;;;6270562;28;19909;-71
2023/04/30 14:27:28;;;;;;;;;;;18.90;44.60;;;;;;6270508;28;19962;-71
2023/04/30 14:30:29;;;;;;;;;;;18.90;46.80;;;;;;6269399;28;20003;-71
2023/04/30 14:33:30;;;;;;;;;;;18.90;44.80;;;;;;6270578;28;19920;-71
2023/04/30 14:36:33;;;;;;;;;;;18.90;44.70;;;;;;6270200;28;19913;-71
2023/04/30 14:39:33;;;;;;;;;;;18.90;45.30;;;;;;6253622;28;20482;-72
2023/04/30 14:42:34;;;;;;;;;;;19.00;43.80;;;;;;6242775;28;19939;-71
2023/04/30 14:45:35;;;;;;;;;;;19.00;46.00;;;;;;6269122;28;19916;-74
2023/04/30 14:48:35;;;;;;;;;;;19.00;44.70;;;;;;6267564;28;19925;-71
2023/04/30 14:51:36;;;;;;;;;;;19.00;44.50;;;;;;6268551;28;20358;-71
2023/04/30 14:54:37;;;;;;;;;;;19.00;43.90;;;;;;6255064;28;19988;-70
2023/04/30 14:57:38;;;;;;;;;;;19.00;44.10;;;;;;6248939;28;19916;-71
2023/04/30 15:00:38;;;;;;;;;;;19.00;44.40;;;;;;6268286;28;19935;-71
2023/04/30 15:03:39;;;;;;;;;;;19.00;44.80;;;;;;6268154;28;20447;-72
2023/04/30 15:06:40;;;;;;;;;;;19.10;45.40;;;;;;6263643;28;19915;-72
2023/04/30 15:09:40;;;;;;;;;;;19.10;45.80;;;;;;6283961;28;19917;-71
2023/04/30 15:12:41;;;;;;;;;;;19.10;46.00;;;;;;6269490;28;20396;-71
2023/04/30 15:15:42;;;;;;;;;;;19.10;46.30;;;;;;6267983;28;19908;-71
2023/04/30 15:18:43;;;;;;;;;;;19.10;46.50;;;;;;6262540;28;20473;-71
2023/04/30 15:21:43;;;;;;;;;;;19.10;46.80;;;;;;6268666;28;19916;-71
2023/04/30 15:24:44;;;;;;;;;;;19.10;46.90;;;;;;6267153;28;19924;-72
2023/04/30 15:27:44;;;;;;;;;;;19.10;46.90;;;;;;6268788;28;19913;-72
2023/04/30 15:30:45;;;;;;;;;;;19.10;48.20;;;;;;6258931;28;20014;-72
2023/04/30 15:33:46;;;;;;;;;;;19.20;48.10;;;;;;6243084;28;19921;-71
2023/04/30 15:36:46;;;;;;;;;;;19.20;47.60;;;;;;6244190;28;19910;-71
2023/04/30 15:39:47;;;;;;;;;;;19.20;47.20;;;;;;6250956;28;20007;-71
2023/04/30 15:42:49;;;;;;;;;;;19.30;46.90;;;;;;6268624;28;19996;-71
2023/04/30 15:45:50;;;;;;;;;;;19.40;46.60;;;;;;6253667;28;20367;-71
2023/04/30 15:48:51;;;;;;;;;;;19.50;46.50;;;;;;6243409;28;19928;-71
2023/04/30 15:51:51;;;;;;;;;;;19.50;46.30;;;;;;6266788;28;19954;-71
2023/04/30 15:54:52;;;;;;;;;;;19.60;46.30;;;;;;6260816;28;19959;-71
2023/04/30 15:57:52;;;;;;;;;;;19.70;46.20;;;;;;6242052;28;19913;-71
2023/04/30 16:00:53;;;;;;;;;;;19.70;46.00;;;;;;6258152;28;19970;-71
2023/04/30 16:03:54;;;;;;;;;;;19.70;46.00;;;;;;6268435;28;19916;-72
2023/04/30 16:06:55;;;;;;;;;;;19.70;45.90;;;;;;6264055;28;19913;-72
2023/04/30 16:09:57;;;;;;;;;;;19.80;46.00;;;;;;6239881;28;20366;-71
2023/04/30 16:12:58;;;;;;;;;;;19.80;45.90;;;;;;6267154;28;19917;-71
2023/04/30 16:15:58;;;;;;;;;;;19.80;45.90;;;;;;6254435;28;20325;-71
2023/04/30 16:18:59;;;;;;;;;;;19.80;45.80;;;;;;6265693;28;20282;-72
2023/04/30 16:22:00;;;;;;;;;;;19.80;45.80;;;;;;6266204;28;19955;-69
2023/04/30 16:25:00;;;;;;;;;;;19.90;45.90;;;;;;6268201;28;19909;-72
2023/04/30 16:28:02;;;;;;;;;;;19.90;45.90;;;;;;6266024;28;20285;-71
2023/04/30 16:31:02;;;;;;;;;;;19.90;45.80;;;;;;6267682;28;20004;-71
2023/04/30 16:34:03;;;;;;;;;;;19.90;45.80;;;;;;6267803;28;19913;-71
2023/04/30 16:37:04;;;;;;;;;;;19.90;45.90;;;;;;6266537;28;19931;-71
2023/04/30 16:40:06;;;;;;;;;;;19.90;45.80;;;;;;6267382;28;19955;-71
2023/04/30 16:43:07;;;;;;;;;;;19.90;45.80;;;;;;6265249;28;19909;-70
2023/04/30 16:46:07;;;;;;;;;;;19.90;45.80;;;;;;6267182;28;19995;-70
2023/04/30 16:49:08;;;;;;;;;;;19.90;45.80;;;;;;6266815;28;19921;-70
2023/04/30 16:52:09;;;;;;;;;;;20.00;45.80;;;;;;6268564;28;19908;-70
2023/04/30 16:55:09;;;;;;;;;;;20.00;45.90;;;;;;6268537;28;19967;-69
2023/04/30 16:58:10;;;;;;;;;;;19.90;45.70;;;;;;6268771;28;19916;-70
2023/04/30 17:01:11;;;;;;;;;;;19.90;45.70;;;;;;6267915;28;19921;-72
2023/04/30 17:04:13;;;;;;;;;;;20.00;45.90;;;;;;6257463;28;19940;-70
2023/04/30 17:07:15;;;;;;;;;;;19.90;45.70;;;;;;6248328;28;19931;-69
2023/04/30 17:10:16;;;;;;;;;;;20.00;45.70;;;;;;6249241;28;19909;-70
2023/04/30 17:13:17;;;;;;;;;;;20.00;45.70;;;;;;6249267;28;19920;-70
2023/04/30 17:16:18;;;;;;;;;;;20.00;45.70;;;;;;6249290;28;19909;-70
2023/04/30 17:19:18;;;;;;;;;;;20.00;45.70;;;;;;6249140;28;19909;-70
2023/04/30 17:22:19;;;;;;;;;;;20.00;45.70;;;;;;6247967;28;19909;-70
2023/04/30 17:25:20;;;;;;;;;;;20.00;45.60;;;;;;6255249;28;19908;-70
2023/04/30 17:28:20;;;;;;;;;;;20.00;45.70;;;;;;6272306;28;19920;-70
2023/04/30 17:31:21;;;;;;;;;;;20.00;46.50;;;;;;6273447;28;20467;-70
2023/04/30 17:34:22;;;;;;;;;;;19.90;45.70;;;;;;6272051;28;19917;-69
2023/04/30 17:37:22;;;;;;;;;;;20.00;45.70;;;;;;6273147;28;19909;-70
2023/04/30 17:40:23;;;;;;;;;;;20.00;45.70;;;;;;6273444;28;19913;-70